sensor_id;sensor_type;location;lat;lon;timestamp;temperature;humidity
74511;DHT22;62991;50.040;18.400;2023-09-07T00:00:28;19.70;59.30
74511;DHT22;62991;50.040;18.400;2023-09-07T00:03:28;19.50;59.20
74511;DHT22;62991;50.040;18.400;2023-09-07T00:06:29;19.20;60.00
74511;DHT22;62991;50.040;18.400;2023-09-07T00:09:30;19.10;59.60
74511;DHT22;62991;50.040;18.400;2023-09-07T00:12:30;19.00;59.80
74511;DHT22;62991;50.040;18.400;2023-09-07T00:15:38;19.00;60.00
74511;DHT22;62991;50.040;18.400;2023-09-07T00:18:38;19.00;60.90
74511;DHT22;62991;50.040;18.400;2023-09-07T00:21:39;19.10;59.80
74511;DHT22;62991;50.040;18.400;2023-09-07T00:24:40;18.90;60.80
74511;DHT22;62991;50.040;18.400;2023-09-07T00:27:41;19.00;60.10
74511;DHT22;62991;50.040;18.400;2023-09-07T00:30:41;18.90;60.20
74511;DHT22;62991;50.040;18.400;2023-09-07T00:33:42;18.90;61.00
74511;DHT22;62991;50.040;18.400;2023-09-07T00:36:42;19.00;60.70
74511;DHT22;62991;50.040;18.400;2023-09-07T00:39:43;19.20;60.40
74511;DHT22;62991;50.040;18.400;2023-09-07T00:42:44;19.10;60.10
74511;DHT22;62991;50.040;18.400;2023-09-07T00:45:44;19.10;60.80
74511;DHT22;62991;50.040;18.400;2023-09-07T00:48:45;19.10;60.80
74511;DHT22;62991;50.040;18.400;2023-09-07T00:51:46;19.20;60.60
74511;DHT22;62991;50.040;18.400;2023-09-07T00:54:47;19.20;60.60
74511;DHT22;62991;50.040;18.400;2023-09-07T00:57:47;19.10;60.50
74511;DHT22;62991;50.040;18.400;2023-09-07T01:00:48;19.10;60.50
74511;DHT22;62991;50.040;18.400;2023-09-07T01:03:50;19.00;60.70
74511;DHT22;62991;50.040;18.400;2023-09-07T01:07:06;19.00;61.20
74511;DHT22;62991;50.040;18.400;2023-09-07T01:10:10;19.00;61.10
74511;DHT22;62991;50.040;18.400;2023-09-07T01:13:11;19.00;60.80
74511;DHT22;62991;50.040;18.400;2023-09-07T01:16:13;18.90;61.10
74511;DHT22;62991;50.040;18.400;2023-09-07T01:19:13;18.90;61.60
74511;DHT22;62991;50.040;18.400;2023-09-07T01:22:14;18.90;61.40
74511;DHT22;62991;50.040;18.400;2023-09-07T01:25:15;18.80;61.20
74511;DHT22;62991;50.040;18.400;2023-09-07T01:28:16;18.80;61.50
74511;DHT22;62991;50.040;18.400;2023-09-07T01:31:16;18.80;61.60
74511;DHT22;62991;50.040;18.400;2023-09-07T01:34:17;18.80;61.50
74511;DHT22;62991;50.040;18.400;2023-09-07T01:37:18;18.70;61.40
74511;DHT22;62991;50.040;18.400;2023-09-07T01:40:19;18.60;61.90
74511;DHT22;62991;50.040;18.400;2023-09-07T01:43:20;18.60;62.10
74511;DHT22;62991;50.040;18.400;2023-09-07T01:46:20;18.60;62.00
74511;DHT22;62991;50.040;18.400;2023-09-07T01:49:21;18.60;62.10
74511;DHT22;62991;50.040;18.400;2023-09-07T01:52:22;18.50;62.20
74511;DHT22;62991;50.040;18.400;2023-09-07T01:55:22;18.50;63.00
74511;DHT22;62991;50.040;18.400;2023-09-07T01:58:23;18.50;62.40
74511;DHT22;62991;50.040;18.400;2023-09-07T02:01:31;18.40;62.10
74511;DHT22;62991;50.040;18.400;2023-09-07T02:04:31;18.40;62.60
74511;DHT22;62991;50.040;18.400;2023-09-07T02:07:32;18.40;62.90
74511;DHT22;62991;50.040;18.400;2023-09-07T02:10:34;18.40;63.20
74511;DHT22;62991;50.040;18.400;2023-09-07T02:13:34;18.30;63.00
74511;DHT22;62991;50.040;18.400;2023-09-07T02:16:35;18.20;63.20
74511;DHT22;62991;50.040;18.400;2023-09-07T02:19:35;18.20;63.00
74511;DHT22;62991;50.040;18.400;2023-09-07T02:22:37;18.20;63.30
74511;DHT22;62991;50.040;18.400;2023-09-07T02:25:37;18.20;63.30
74511;DHT22;62991;50.040;18.400;2023-09-07T02:28:38;18.10;63.20
74511;DHT22;62991;50.040;18.400;2023-09-07T02:31:42;18.20;63.40
74511;DHT22;62991;50.040;18.400;2023-09-07T02:34:42;18.00;63.50
74511;DHT22;62991;50.040;18.400;2023-09-07T02:37:43;18.00;64.10
74511;DHT22;62991;50.040;18.400;2023-09-07T02:40:44;18.00;64.10
74511;DHT22;62991;50.040;18.400;2023-09-07T02:43:44;18.00;64.30
74511;DHT22;62991;50.040;18.400;2023-09-07T02:46:45;17.90;64.10
74511;DHT22;62991;50.040;18.400;2023-09-07T02:49:46;17.90;64.50
74511;DHT22;62991;50.040;18.400;2023-09-07T02:52:46;17.90;64.40
74511;DHT22;62991;50.040;18.400;2023-09-07T02:55:47;17.70;65.10
74511;DHT22;62991;50.040;18.400;2023-09-07T02:58:48;17.70;65.10
74511;DHT22;62991;50.040;18.400;2023-09-07T03:01:48;17.80;65.10
74511;DHT22;62991;50.040;18.400;2023-09-07T03:04:56;17.80;65.00
74511;DHT22;62991;50.040;18.400;2023-09-07T03:07:59;17.80;65.10
74511;DHT22;62991;50.040;18.400;2023-09-07T03:11:03;17.80;65.30
74511;DHT22;62991;50.040;18.400;2023-09-07T03:14:04;17.80;65.10
74511;DHT22;62991;50.040;18.400;2023-09-07T03:17:05;17.80;65.30
74511;DHT22;62991;50.040;18.400;2023-09-07T03:20:06;17.80;64.90
74511;DHT22;62991;50.040;18.400;2023-09-07T03:23:14;17.70;65.30
74511;DHT22;62991;50.040;18.400;2023-09-07T03:26:14;17.70;65.40
74511;DHT22;62991;50.040;18.400;2023-09-07T03:29:15;17.70;65.00
74511;DHT22;62991;50.040;18.400;2023-09-07T03:32:16;17.60;64.90
74511;DHT22;62991;50.040;18.400;2023-09-07T03:35:16;17.60;65.20
74511;DHT22;62991;50.040;18.400;2023-09-07T03:38:17;17.50;65.70
74511;DHT22;62991;50.040;18.400;2023-09-07T03:41:18;17.60;65.60
74511;DHT22;62991;50.040;18.400;2023-09-07T03:44:18;17.50;65.60
74511;DHT22;62991;50.040;18.400;2023-09-07T03:47:19;17.50;65.90
74511;DHT22;62991;50.040;18.400;2023-09-07T03:50:20;17.50;65.50
74511;DHT22;62991;50.040;18.400;2023-09-07T03:53:20;17.40;65.90
74511;DHT22;62991;50.040;18.400;2023-09-07T03:56:21;17.40;66.30
74511;DHT22;62991;50.040;18.400;2023-09-07T03:59:22;17.50;66.60
74511;DHT22;62991;50.040;18.400;2023-09-07T04:02:23;17.50;66.40
74511;DHT22;62991;50.040;18.400;2023-09-07T04:05:24;17.60;65.70
74511;DHT22;62991;50.040;18.400;2023-09-07T04:08:24;17.60;66.10
74511;DHT22;62991;50.040;18.400;2023-09-07T04:11:25;17.70;66.00
74511;DHT22;62991;50.040;18.400;2023-09-07T04:14:26;17.70;65.90
74511;DHT22;62991;50.040;18.400;2023-09-07T04:17:26;17.70;65.90
74511;DHT22;62991;50.040;18.400;2023-09-07T04:20:27;17.60;65.40
74511;DHT22;62991;50.040;18.400;2023-09-07T04:23:29;17.60;65.50
74511;DHT22;62991;50.040;18.400;2023-09-07T04:26:30;17.60;65.40
74511;DHT22;62991;50.040;18.400;2023-09-07T04:29:31;17.60;65.90
74511;DHT22;62991;50.040;18.400;2023-09-07T04:32:31;17.60;65.60
74511;DHT22;62991;50.040;18.400;2023-09-07T04:35:33;17.60;65.70
74511;DHT22;62991;50.040;18.400;2023-09-07T04:38:33;17.60;65.80
74511;DHT22;62991;50.040;18.400;2023-09-07T04:41:34;17.50;66.00
74511;DHT22;62991;50.040;18.400;2023-09-07T04:44:35;17.50;65.80
74511;DHT22;62991;50.040;18.400;2023-09-07T04:47:35;17.50;65.70
74511;DHT22;62991;50.040;18.400;2023-09-07T04:50:37;17.50;65.70
74511;DHT22;62991;50.040;18.400;2023-09-07T04:53:38;17.50;65.80
74511;DHT22;62991;50.040;18.400;2023-09-07T04:56:39;17.50;66.10
74511;DHT22;62991;50.040;18.400;2023-09-07T04:59:40;17.40;66.50
74511;DHT22;62991;50.040;18.400;2023-09-07T05:02:40;17.40;66.10
74511;DHT22;62991;50.040;18.400;2023-09-07T05:05:43;17.40;65.90
74511;DHT22;62991;50.040;18.400;2023-09-07T05:08:46;17.40;66.30
74511;DHT22;62991;50.040;18.400;2023-09-07T05:11:47;17.40;66.40
74511;DHT22;62991;50.040;18.400;2023-09-07T05:14:48;17.40;66.50
74511;DHT22;62991;50.040;18.400;2023-09-07T05:17:48;17.40;66.80
74511;DHT22;62991;50.040;18.400;2023-09-07T05:20:49;17.60;66.10
74511;DHT22;62991;50.040;18.400;2023-09-07T05:23:51;17.60;65.80
74511;DHT22;62991;50.040;18.400;2023-09-07T05:26:52;17.60;66.20
74511;DHT22;62991;50.040;18.400;2023-09-07T05:29:53;17.70;65.70
74511;DHT22;62991;50.040;18.400;2023-09-07T05:32:53;17.70;66.00
74511;DHT22;62991;50.040;18.400;2023-09-07T05:35:54;17.80;65.90
74511;DHT22;62991;50.040;18.400;2023-09-07T05:53:11;18.20;66.00
74511;DHT22;62991;50.040;18.400;2023-09-07T05:56:12;18.00;66.90
74511;DHT22;62991;50.040;18.400;2023-09-07T05:59:13;18.10;67.10
74511;DHT22;62991;50.040;18.400;2023-09-07T06:02:13;18.10;67.50
74511;DHT22;62991;50.040;18.400;2023-09-07T06:05:14;18.20;67.60
74511;DHT22;62991;50.040;18.400;2023-09-07T06:08:15;18.30;67.50
74511;DHT22;62991;50.040;18.400;2023-09-07T06:11:16;18.30;66.90
74511;DHT22;62991;50.040;18.400;2023-09-07T06:14:17;18.40;67.30
74511;DHT22;62991;50.040;18.400;2023-09-07T06:17:17;18.40;66.50
74511;DHT22;62991;50.040;18.400;2023-09-07T06:20:19;18.40;66.10
74511;DHT22;62991;50.040;18.400;2023-09-07T06:23:19;18.40;67.30
74511;DHT22;62991;50.040;18.400;2023-09-07T06:26:20;18.50;67.00
74511;DHT22;62991;50.040;18.400;2023-09-07T06:29:21;18.50;67.40
74511;DHT22;62991;50.040;18.400;2023-09-07T06:32:22;18.60;66.60
74511;DHT22;62991;50.040;18.400;2023-09-07T06:35:23;18.60;66.80
74511;DHT22;62991;50.040;18.400;2023-09-07T06:38:24;18.70;66.10
74511;DHT22;62991;50.040;18.400;2023-09-07T06:41:24;18.70;66.90
74511;DHT22;62991;50.040;18.400;2023-09-07T06:44:25;18.80;67.40
74511;DHT22;62991;50.040;18.400;2023-09-07T06:47:26;18.90;66.90
74511;DHT22;62991;50.040;18.400;2023-09-07T06:50:26;18.90;66.80
74511;DHT22;62991;50.040;18.400;2023-09-07T06:53:27;18.90;66.60
74511;DHT22;62991;50.040;18.400;2023-09-07T06:56:27;19.00;65.90
74511;DHT22;62991;50.040;18.400;2023-09-07T06:59:31;19.00;66.20
74511;DHT22;62991;50.040;18.400;2023-09-07T07:02:32;19.10;66.70
74511;DHT22;62991;50.040;18.400;2023-09-07T07:05:32;19.10;66.90
74511;DHT22;62991;50.040;18.400;2023-09-07T07:08:34;19.20;66.90
74511;DHT22;62991;50.040;18.400;2023-09-07T07:11:35;19.20;66.40
74511;DHT22;62991;50.040;18.400;2023-09-07T07:14:35;19.30;67.90
74511;DHT22;62991;50.040;18.400;2023-09-07T07:17:36;19.30;67.60
74511;DHT22;62991;50.040;18.400;2023-09-07T07:20:38;19.30;67.40
74511;DHT22;62991;50.040;18.400;2023-09-07T07:23:38;19.40;66.90
74511;DHT22;62991;50.040;18.400;2023-09-07T07:26:39;19.50;67.30
74511;DHT22;62991;50.040;18.400;2023-09-07T07:29:40;19.60;67.90
74511;DHT22;62991;50.040;18.400;2023-09-07T07:32:40;19.70;67.50
74511;DHT22;62991;50.040;18.400;2023-09-07T07:35:41;19.70;67.10
74511;DHT22;62991;50.040;18.400;2023-09-07T07:38:42;19.80;66.20
74511;DHT22;62991;50.040;18.400;2023-09-07T07:41:42;19.80;65.20
74511;DHT22;62991;50.040;18.400;2023-09-07T07:44:46;19.70;64.30
74511;DHT22;62991;50.040;18.400;2023-09-07T07:47:46;19.60;66.80
74511;DHT22;62991;50.040;18.400;2023-09-07T07:50:47;19.70;65.80
74511;DHT22;62991;50.040;18.400;2023-09-07T07:53:47;19.80;66.70
74511;DHT22;62991;50.040;18.400;2023-09-07T07:56:48;19.90;66.80
74511;DHT22;62991;50.040;18.400;2023-09-07T07:59:49;20.00;66.70
74511;DHT22;62991;50.040;18.400;2023-09-07T08:02:49;20.10;66.50
74511;DHT22;62991;50.040;18.400;2023-09-07T08:05:50;20.20;66.80
74511;DHT22;62991;50.040;18.400;2023-09-07T08:08:51;20.30;65.80
74511;DHT22;62991;50.040;18.400;2023-09-07T08:11:52;20.40;65.10
74511;DHT22;62991;50.040;18.400;2023-09-07T08:14:52;20.40;65.80
74511;DHT22;62991;50.040;18.400;2023-09-07T08:17:53;20.50;64.70
74511;DHT22;62991;50.040;18.400;2023-09-07T08:20:54;20.50;64.40
74511;DHT22;62991;50.040;18.400;2023-09-07T08:23:55;20.50;63.40
74511;DHT22;62991;50.040;18.400;2023-09-07T08:26:56;20.60;63.00
74511;DHT22;62991;50.040;18.400;2023-09-07T08:29:58;20.70;63.40
74511;DHT22;62991;50.040;18.400;2023-09-07T08:32:59;20.70;63.40
74511;DHT22;62991;50.040;18.400;2023-09-07T08:36:02;20.80;63.40
74511;DHT22;62991;50.040;18.400;2023-09-07T08:39:04;20.90;62.80
74511;DHT22;62991;50.040;18.400;2023-09-07T08:42:13;21.00;62.20
74511;DHT22;62991;50.040;18.400;2023-09-07T08:45:15;21.00;62.60
74511;DHT22;62991;50.040;18.400;2023-09-07T08:48:20;21.00;62.60
74511;DHT22;62991;50.040;18.400;2023-09-07T08:51:22;21.10;60.90
74511;DHT22;62991;50.040;18.400;2023-09-07T08:54:23;21.20;60.70
74511;DHT22;62991;50.040;18.400;2023-09-07T08:57:25;21.30;61.50
74511;DHT22;62991;50.040;18.400;2023-09-07T09:00:27;21.40;59.90
74511;DHT22;62991;50.040;18.400;2023-09-07T09:03:30;21.50;59.80
74511;DHT22;62991;50.040;18.400;2023-09-07T09:06:31;21.50;58.70
74511;DHT22;62991;50.040;18.400;2023-09-07T09:09:32;21.60;59.30
74511;DHT22;62991;50.040;18.400;2023-09-07T09:12:33;21.70;60.00
74511;DHT22;62991;50.040;18.400;2023-09-07T09:15:34;21.80;58.80
74511;DHT22;62991;50.040;18.400;2023-09-07T09:18:35;21.80;59.30
74511;DHT22;62991;50.040;18.400;2023-09-07T09:21:35;21.90;59.50
74511;DHT22;62991;50.040;18.400;2023-09-07T09:24:36;22.00;59.30
74511;DHT22;62991;50.040;18.400;2023-09-07T09:27:37;22.00;57.30
74511;DHT22;62991;50.040;18.400;2023-09-07T09:30:37;22.10;57.90
74511;DHT22;62991;50.040;18.400;2023-09-07T09:33:39;22.20;58.50
74511;DHT22;62991;50.040;18.400;2023-09-07T09:36:42;22.20;58.30
74511;DHT22;62991;50.040;18.400;2023-09-07T09:39:43;22.30;57.60
74511;DHT22;62991;50.040;18.400;2023-09-07T09:42:44;22.30;58.70
74511;DHT22;62991;50.040;18.400;2023-09-07T09:45:45;22.40;56.40
74511;DHT22;62991;50.040;18.400;2023-09-07T09:48:47;22.50;56.90
74511;DHT22;62991;50.040;18.400;2023-09-07T09:51:49;22.60;56.90
74511;DHT22;62991;50.040;18.400;2023-09-07T09:54:51;22.70;56.50
74511;DHT22;62991;50.040;18.400;2023-09-07T09:57:52;22.70;56.50
74511;DHT22;62991;50.040;18.400;2023-09-07T10:00:58;22.80;54.80
74511;DHT22;62991;50.040;18.400;2023-09-07T10:04:00;22.90;55.40
74511;DHT22;62991;50.040;18.400;2023-09-07T10:07:01;23.00;55.80
74511;DHT22;62991;50.040;18.400;2023-09-07T10:10:09;23.10;55.40
74511;DHT22;62991;50.040;18.400;2023-09-07T10:13:14;23.20;54.60
74511;DHT22;62991;50.040;18.400;2023-09-07T10:16:15;23.30;54.80
74511;DHT22;62991;50.040;18.400;2023-09-07T10:19:21;23.40;54.40
74511;DHT22;62991;50.040;18.400;2023-09-07T10:22:22;23.50;54.30
74511;DHT22;62991;50.040;18.400;2023-09-07T10:25:23;23.60;53.90
74511;DHT22;62991;50.040;18.400;2023-09-07T10:28:25;23.70;53.50
74511;DHT22;62991;50.040;18.400;2023-09-07T10:31:26;23.80;52.70
74511;DHT22;62991;50.040;18.400;2023-09-07T10:34:36;23.80;51.40
74511;DHT22;62991;50.040;18.400;2023-09-07T10:37:46;23.90;51.10
74511;DHT22;62991;50.040;18.400;2023-09-07T10:40:47;24.00;51.20
74511;DHT22;62991;50.040;18.400;2023-09-07T10:43:53;24.10;51.20
74511;DHT22;62991;50.040;18.400;2023-09-07T10:46:55;24.20;51.40
74511;DHT22;62991;50.040;18.400;2023-09-07T10:49:57;24.30;50.40
74511;DHT22;62991;50.040;18.400;2023-09-07T10:52:58;24.40;50.70
74511;DHT22;62991;50.040;18.400;2023-09-07T10:56:02;24.50;50.10
74511;DHT22;62991;50.040;18.400;2023-09-07T10:59:03;24.60;51.60
74511;DHT22;62991;50.040;18.400;2023-09-07T11:02:07;24.80;50.40
74511;DHT22;62991;50.040;18.400;2023-09-07T11:05:08;24.90;50.20
74511;DHT22;62991;50.040;18.400;2023-09-07T11:08:10;25.00;49.40
74511;DHT22;62991;50.040;18.400;2023-09-07T11:11:11;25.00;48.90
74511;DHT22;62991;50.040;18.400;2023-09-07T11:14:13;25.00;49.30
74511;DHT22;62991;50.040;18.400;2023-09-07T11:17:13;25.00;48.10
74511;DHT22;62991;50.040;18.400;2023-09-07T11:20:14;25.20;47.90
74511;DHT22;62991;50.040;18.400;2023-09-07T11:34:56;25.70;47.70
74511;DHT22;62991;50.040;18.400;2023-09-07T11:37:58;25.70;47.00
74511;DHT22;62991;50.040;18.400;2023-09-07T11:40:59;25.80;45.90
74511;DHT22;62991;50.040;18.400;2023-09-07T11:44:00;26.10;46.20
74511;DHT22;62991;50.040;18.400;2023-09-07T11:47:01;26.20;45.80
74511;DHT22;62991;50.040;18.400;2023-09-07T11:50:01;26.30;45.80
74511;DHT22;62991;50.040;18.400;2023-09-07T11:53:03;26.50;44.70
74511;DHT22;62991;50.040;18.400;2023-09-07T11:56:04;26.60;44.80
74511;DHT22;62991;50.040;18.400;2023-09-07T11:59:05;26.80;46.30
74511;DHT22;62991;50.040;18.400;2023-09-07T12:02:05;27.00;45.20
74511;DHT22;62991;50.040;18.400;2023-09-07T12:05:07;27.10;45.40
74511;DHT22;62991;50.040;18.400;2023-09-07T12:08:15;27.30;45.30
74511;DHT22;62991;50.040;18.400;2023-09-07T12:11:16;27.40;44.10
74511;DHT22;62991;50.040;18.400;2023-09-07T12:14:17;27.50;45.30
74511;DHT22;62991;50.040;18.400;2023-09-07T12:17:18;27.70;45.50
74511;DHT22;62991;50.040;18.400;2023-09-07T12:20:20;27.80;45.20
74511;DHT22;62991;50.040;18.400;2023-09-07T12:23:21;27.80;45.00
74511;DHT22;62991;50.040;18.400;2023-09-07T12:26:23;27.90;44.60
74511;DHT22;62991;50.040;18.400;2023-09-07T12:29:24;28.10;46.40
74511;DHT22;62991;50.040;18.400;2023-09-07T12:32:25;28.30;44.20
74511;DHT22;62991;50.040;18.400;2023-09-07T12:35:25;28.50;44.00
74511;DHT22;62991;50.040;18.400;2023-09-07T12:38:26;28.70;43.60
74511;DHT22;62991;50.040;18.400;2023-09-07T12:41:29;28.80;44.50
74511;DHT22;62991;50.040;18.400;2023-09-07T12:44:31;28.90;44.70
74511;DHT22;62991;50.040;18.400;2023-09-07T12:47:33;29.00;42.60
74511;DHT22;62991;50.040;18.400;2023-09-07T12:50:34;29.10;43.70
74511;DHT22;62991;50.040;18.400;2023-09-07T12:53:35;29.20;44.40
74511;DHT22;62991;50.040;18.400;2023-09-07T12:56:35;29.30;42.10
74511;DHT22;62991;50.040;18.400;2023-09-07T12:59:36;29.30;44.00
74511;DHT22;62991;50.040;18.400;2023-09-07T13:02:37;29.60;43.20
74511;DHT22;62991;50.040;18.400;2023-09-07T13:05:37;29.80;44.20
74511;DHT22;62991;50.040;18.400;2023-09-07T13:08:38;30.00;40.90
74511;DHT22;62991;50.040;18.400;2023-09-07T13:11:39;30.00;41.10
74511;DHT22;62991;50.040;18.400;2023-09-07T13:14:40;29.90;41.00
74511;DHT22;62991;50.040;18.400;2023-09-07T13:17:40;30.20;40.80
74511;DHT22;62991;50.040;18.400;2023-09-07T13:20:41;30.70;40.80
74511;DHT22;62991;50.040;18.400;2023-09-07T13:23:42;31.20;39.90
74511;DHT22;62991;50.040;18.400;2023-09-07T13:26:46;32.30;38.90
74511;DHT22;62991;50.040;18.400;2023-09-07T13:29:47;37.90;33.10
74511;DHT22;62991;50.040;18.400;2023-09-07T13:32:48;43.40;29.20
74511;DHT22;62991;50.040;18.400;2023-09-07T13:35:50;47.00;26.10
74511;DHT22;62991;50.040;18.400;2023-09-07T13:38:50;49.60;24.50
74511;DHT22;62991;50.040;18.400;2023-09-07T13:41:51;51.40;23.70
74511;DHT22;62991;50.040;18.400;2023-09-07T13:44:52;51.70;23.00
74511;DHT22;62991;50.040;18.400;2023-09-07T13:47:52;50.20;24.10
74511;DHT22;62991;50.040;18.400;2023-09-07T13:50:53;48.50;24.40
74511;DHT22;62991;50.040;18.400;2023-09-07T13:53:54;47.00;24.90
74511;DHT22;62991;50.040;18.400;2023-09-07T13:56:54;46.50;25.80
74511;DHT22;62991;50.040;18.400;2023-09-07T13:59:55;46.60;25.20
74511;DHT22;62991;50.040;18.400;2023-09-07T14:02:56;48.20;25.60
74511;DHT22;62991;50.040;18.400;2023-09-07T14:05:56;51.00;22.90
74511;DHT22;62991;50.040;18.400;2023-09-07T14:08:58;53.30;21.70
74511;DHT22;62991;50.040;18.400;2023-09-07T14:11:58;54.70;21.40
74511;DHT22;62991;50.040;18.400;2023-09-07T14:14:59;55.00;21.10
74511;DHT22;62991;50.040;18.400;2023-09-07T14:17:59;54.30;21.50
74511;DHT22;62991;50.040;18.400;2023-09-07T14:21:02;53.60;21.90
74511;DHT22;62991;50.040;18.400;2023-09-07T14:24:04;53.10;21.80
74511;DHT22;62991;50.040;18.400;2023-09-07T14:27:05;52.40;22.10
74511;DHT22;62991;50.040;18.400;2023-09-07T14:30:06;51.50;22.50
74511;DHT22;62991;50.040;18.400;2023-09-07T14:33:07;49.50;23.60
74511;DHT22;62991;50.040;18.400;2023-09-07T14:36:08;47.80;23.90
74511;DHT22;62991;50.040;18.400;2023-09-07T14:39:09;46.80;24.30
74511;DHT22;62991;50.040;18.400;2023-09-07T14:42:09;46.10;25.00
74511;DHT22;62991;50.040;18.400;2023-09-07T14:45:14;45.80;25.00
74511;DHT22;62991;50.040;18.400;2023-09-07T14:48:15;45.20;25.90
74511;DHT22;62991;50.040;18.400;2023-09-07T14:51:16;44.40;25.80
74511;DHT22;62991;50.040;18.400;2023-09-07T14:54:16;43.70;26.30
74511;DHT22;62991;50.040;18.400;2023-09-07T14:57:18;42.90;27.30
74511;DHT22;62991;50.040;18.400;2023-09-07T15:00:19;42.30;27.80
74511;DHT22;62991;50.040;18.400;2023-09-07T15:03:20;41.80;28.20
74511;DHT22;62991;50.040;18.400;2023-09-07T15:06:20;41.10;28.70
74511;DHT22;62991;50.040;18.400;2023-09-07T15:09:21;39.80;30.40
74511;DHT22;62991;50.040;18.400;2023-09-07T15:12:21;38.70;30.40
74511;DHT22;62991;50.040;18.400;2023-09-07T15:15:22;38.50;31.10
74511;DHT22;62991;50.040;18.400;2023-09-07T15:18:23;38.40;32.10
74511;DHT22;62991;50.040;18.400;2023-09-07T15:21:23;38.10;31.70
74511;DHT22;62991;50.040;18.400;2023-09-07T15:24:24;37.70;32.00
74511;DHT22;62991;50.040;18.400;2023-09-07T15:27:25;37.20;32.20
74511;DHT22;62991;50.040;18.400;2023-09-07T15:30:25;36.90;33.30
74511;DHT22;62991;50.040;18.400;2023-09-07T15:33:26;36.40;33.90
74511;DHT22;62991;50.040;18.400;2023-09-07T15:36:27;36.20;34.10
74511;DHT22;62991;50.040;18.400;2023-09-07T15:39:27;35.80;34.70
74511;DHT22;62991;50.040;18.400;2023-09-07T15:42:29;35.50;36.70
74511;DHT22;62991;50.040;18.400;2023-09-07T15:45:29;35.30;36.50
74511;DHT22;62991;50.040;18.400;2023-09-07T15:48:31;35.10;36.80
74511;DHT22;62991;50.040;18.400;2023-09-07T15:51:32;34.80;36.20
74511;DHT22;62991;50.040;18.400;2023-09-07T15:54:33;34.60;35.60
74511;DHT22;62991;50.040;18.400;2023-09-07T15:57:34;34.30;35.10
74511;DHT22;62991;50.040;18.400;2023-09-07T16:00:34;34.00;36.70
74511;DHT22;62991;50.040;18.400;2023-09-07T16:03:35;33.80;36.30
74511;DHT22;62991;50.040;18.400;2023-09-07T16:06:36;33.50;37.10
74511;DHT22;62991;50.040;18.400;2023-09-07T16:09:36;33.30;36.70
74511;DHT22;62991;50.040;18.400;2023-09-07T16:12:37;33.10;35.90
74511;DHT22;62991;50.040;18.400;2023-09-07T16:15:38;32.80;37.90
74511;DHT22;62991;50.040;18.400;2023-09-07T16:18:38;32.60;39.30
74511;DHT22;62991;50.040;18.400;2023-09-07T16:21:39;32.40;38.20
74511;DHT22;62991;50.040;18.400;2023-09-07T16:24:40;32.20;39.10
74511;DHT22;62991;50.040;18.400;2023-09-07T16:27:41;32.00;39.00
74511;DHT22;62991;50.040;18.400;2023-09-07T16:30:42;31.80;39.10
74511;DHT22;62991;50.040;18.400;2023-09-07T16:33:43;31.70;40.60
74511;DHT22;62991;50.040;18.400;2023-09-07T16:36:44;31.50;39.40
74511;DHT22;62991;50.040;18.400;2023-09-07T16:39:45;31.20;40.90
74511;DHT22;62991;50.040;18.400;2023-09-07T16:42:47;30.90;41.80
74511;DHT22;62991;50.040;18.400;2023-09-07T16:45:57;30.60;41.20
74511;DHT22;62991;50.040;18.400;2023-09-07T16:48:57;30.30;41.60
74511;DHT22;62991;50.040;18.400;2023-09-07T16:51:58;30.00;42.00
74511;DHT22;62991;50.040;18.400;2023-09-07T16:54:59;29.70;42.70
74511;DHT22;62991;50.040;18.400;2023-09-07T16:58:00;29.40;43.60
74511;DHT22;62991;50.040;18.400;2023-09-07T17:01:06;29.10;44.00
74511;DHT22;62991;50.040;18.400;2023-09-07T17:04:07;28.80;43.10
74511;DHT22;62991;50.040;18.400;2023-09-07T17:07:08;28.50;44.70
74511;DHT22;62991;50.040;18.400;2023-09-07T17:10:08;28.30;44.80
74511;DHT22;62991;50.040;18.400;2023-09-07T17:13:09;28.00;46.00
74511;DHT22;62991;50.040;18.400;2023-09-07T17:16:10;27.70;46.10
74511;DHT22;62991;50.040;18.400;2023-09-07T17:19:10;27.40;46.40
74511;DHT22;62991;50.040;18.400;2023-09-07T17:22:11;27.20;46.80
74511;DHT22;62991;50.040;18.400;2023-09-07T17:25:14;27.00;47.70
74511;DHT22;62991;50.040;18.400;2023-09-07T17:28:15;26.80;48.50
74511;DHT22;62991;50.040;18.400;2023-09-07T17:31:16;26.70;48.70
74511;DHT22;62991;50.040;18.400;2023-09-07T17:34:17;26.50;48.70
74511;DHT22;62991;50.040;18.400;2023-09-07T17:37:17;26.30;48.30
74511;DHT22;62991;50.040;18.400;2023-09-07T17:40:18;26.20;49.30
74511;DHT22;62991;50.040;18.400;2023-09-07T17:43:19;26.00;50.00
74511;DHT22;62991;50.040;18.400;2023-09-07T17:46:23;26.00;49.20
74511;DHT22;62991;50.040;18.400;2023-09-07T17:49:24;25.90;50.30
74511;DHT22;62991;50.040;18.400;2023-09-07T17:52:24;25.70;50.10
74511;DHT22;62991;50.040;18.400;2023-09-07T17:55:26;25.50;50.30
74511;DHT22;62991;50.040;18.400;2023-09-07T17:58:26;25.40;50.00
74511;DHT22;62991;50.040;18.400;2023-09-07T18:01:27;25.30;50.20
74511;DHT22;62991;50.040;18.400;2023-09-07T18:04:27;25.10;51.40
74511;DHT22;62991;50.040;18.400;2023-09-07T18:07:29;25.00;51.20
74511;DHT22;62991;50.040;18.400;2023-09-07T18:10:29;24.90;51.60
74511;DHT22;62991;50.040;18.400;2023-09-07T18:13:31;24.90;51.90
74511;DHT22;62991;50.040;18.400;2023-09-07T18:16:32;24.90;51.00
74511;DHT22;62991;50.040;18.400;2023-09-07T18:19:34;24.80;51.40
74511;DHT22;62991;50.040;18.400;2023-09-07T18:22:34;24.50;51.70
74511;DHT22;62991;50.040;18.400;2023-09-07T18:25:36;24.20;52.70
74511;DHT22;62991;50.040;18.400;2023-09-07T18:28:37;24.20;53.80
74511;DHT22;62991;50.040;18.400;2023-09-07T18:31:37;24.20;52.40
74511;DHT22;62991;50.040;18.400;2023-09-07T18:34:38;24.20;54.10
74511;DHT22;62991;50.040;18.400;2023-09-07T18:37:38;24.20;52.10
74511;DHT22;62991;50.040;18.400;2023-09-07T18:40:39;24.00;52.70
74511;DHT22;62991;50.040;18.400;2023-09-07T18:43:40;23.90;54.30
74511;DHT22;62991;50.040;18.400;2023-09-07T18:46:40;23.90;54.80
74511;DHT22;62991;50.040;18.400;2023-09-07T18:49:41;23.90;53.80
74511;DHT22;62991;50.040;18.400;2023-09-07T18:52:43;23.80;55.20
74511;DHT22;62991;50.040;18.400;2023-09-07T18:55:43;23.70;53.60
74511;DHT22;62991;50.040;18.400;2023-09-07T18:58:44;23.50;55.30
74511;DHT22;62991;50.040;18.400;2023-09-07T19:01:45;23.50;54.60
74511;DHT22;62991;50.040;18.400;2023-09-07T19:04:45;23.40;55.80
74511;DHT22;62991;50.040;18.400;2023-09-07T19:07:48;23.50;55.70
74511;DHT22;62991;50.040;18.400;2023-09-07T19:10:48;23.30;55.80